sensor_id;sensor_type;location;lat;lon;timestamp;pressure;altitude;pressure_sealevel;temperature;humidity
56600;BME280;51832;48.152;11.530;2023-04-08T00:02:09;95530.03;;;8.58;73.15
56600;BME280;51832;48.152;11.530;2023-04-08T00:07:09;95541.88;;;8.67;73.76
56600;BME280;51832;48.152;11.530;2023-04-08T00:12:10;95534.69;;;8.49;73.70
56600;BME280;51832;48.152;11.530;2023-04-08T00:17:10;95539.16;;;8.29;74.39
56600;BME280;51832;48.152;11.530;2023-04-08T00:22:11;95534.09;;;8.27;74.61
56600;BME280;51832;48.152;11.530;2023-04-08T00:27:11;95534.34;;;8.19;75.03
56600;BME280;51832;48.152;11.530;2023-04-08T00:32:11;95543.19;;;8.44;74.38
56600;BME280;51832;48.152;11.530;2023-04-08T00:37:12;95541.19;;;8.07;75.77
56600;BME280;51832;48.152;11.530;2023-04-08T00:42:12;95544.22;;;8.04;76.60
56600;BME280;51832;48.152;11.530;2023-04-08T00:47:14;95547.44;;;7.93;76.72
56600;BME280;51832;48.152;11.530;2023-04-08T00:52:15;95558.16;;;7.65;78.10
56600;BME280;51832;48.152;11.530;2023-04-08T00:57:16;95560.56;;;7.60;78.59
56600;BME280;51832;48.152;11.530;2023-04-08T01:02:35;95548.88;;;7.82;77.74
56600;BME280;51832;48.152;11.530;2023-04-08T01:07:47;95554.69;;;7.38;79.45
56600;BME280;51832;48.152;11.530;2023-04-08T01:12:55;95543.97;;;7.26;79.94
56600;BME280;51832;48.152;11.530;2023-04-08T01:17:57;95544.03;;;7.46;79.74
56600;BME280;51832;48.152;11.530;2023-04-08T01:28:18;95549.25;;;7.33;80.36
56600;BME280;51832;48.152;11.530;2023-04-08T01:33:20;95555.41;;;7.05;81.24
56600;BME280;51832;48.152;11.530;2023-04-08T01:38:23;95544.78;;;7.27;81.13
56600;BME280;51832;48.152;11.530;2023-04-08T01:43:26;95548.41;;;7.26;81.23
56600;BME280;51832;48.152;11.530;2023-04-08T01:48:27;95547.59;;;7.25;81.79
56600;BME280;51832;48.152;11.530;2023-04-08T01:53:28;95534.03;;;6.89;82.21
56600;BME280;51832;48.152;11.530;2023-04-08T01:58:34;95543.16;;;7.26;80.92
56600;BME280;51832;48.152;11.530;2023-04-08T02:03:37;95551.81;;;7.13;81.11
56600;BME280;51832;48.152;11.530;2023-04-08T02:08:38;95548.53;;;6.98;81.74
56600;BME280;51832;48.152;11.530;2023-04-08T02:13:38;95552.91;;;6.77;82.83
56600;BME280;51832;48.152;11.530;2023-04-08T02:18:42;95553.31;;;6.81;83.67
56600;BME280;51832;48.152;11.530;2023-04-08T02:23:47;95553.91;;;6.76;83.09
56600;BME280;51832;48.152;11.530;2023-04-08T02:28:49;95554.75;;;6.90;83.02
56600;BME280;51832;48.152;11.530;2023-04-08T02:33:51;95549.34;;;6.92;82.13
56600;BME280;51832;48.152;11.530;2023-04-08T02:38:52;95552.66;;;6.72;83.35
56600;BME280;51832;48.152;11.530;2023-04-08T02:43:53;95554.47;;;6.72;83.51
56600;BME280;51832;48.152;11.530;2023-04-08T02:48:54;95556.69;;;6.68;83.91
56600;BME280;51832;48.152;11.530;2023-04-08T02:53:55;95556.75;;;6.82;82.91
56600;BME280;51832;48.152;11.530;2023-04-08T02:58:55;95546.44;;;6.73;84.06
56600;BME280;51832;48.152;11.530;2023-04-08T03:03:55;95545.44;;;6.74;83.85
56600;BME280;51832;48.152;11.530;2023-04-08T03:08:56;95549.44;;;6.64;84.47
56600;BME280;51832;48.152;11.530;2023-04-08T03:13:56;95552.28;;;6.75;84.32
56600;BME280;51832;48.152;11.530;2023-04-08T03:18:57;95560.81;;;6.97;83.98
56600;BME280;51832;48.152;11.530;2023-04-08T03:23:57;95556.69;;;6.68;83.96
56600;BME280;51832;48.152;11.530;2023-04-08T03:28:57;95562.94;;;6.74;83.77
56600;BME280;51832;48.152;11.530;2023-04-08T03:33:58;95558.91;;;6.71;84.50
56600;BME280;51832;48.152;11.530;2023-04-08T03:38:58;95559.94;;;6.84;84.76
56600;BME280;51832;48.152;11.530;2023-04-08T03:43:59;95563.78;;;6.81;84.86
56600;BME280;51832;48.152;11.530;2023-04-08T03:48:59;95575.41;;;6.72;84.88
56600;BME280;51832;48.152;11.530;2023-04-08T03:53:59;95574.50;;;6.99;84.38
56600;BME280;51832;48.152;11.530;2023-04-08T03:59:00;95572.91;;;7.05;84.48
56600;BME280;51832;48.152;11.530;2023-04-08T04:04:00;95578.19;;;7.18;83.27
56600;BME280;51832;48.152;11.530;2023-04-08T04:09:01;95580.03;;;7.31;83.40
56600;BME280;51832;48.152;11.530;2023-04-08T04:14:01;95583.78;;;7.02;84.21
56600;BME280;51832;48.152;11.530;2023-04-08T04:19:02;95595.44;;;6.99;84.76
56600;BME280;51832;48.152;11.530;2023-04-08T04:24:02;95592.41;;;6.96;84.50
56600;BME280;51832;48.152;11.530;2023-04-08T04:29:03;95592.13;;;7.38;84.23
56600;BME280;51832;48.152;11.530;2023-04-08T04:34:03;95601.84;;;7.51;83.12
56600;BME280;51832;48.152;11.530;2023-04-08T04:39:04;95597.31;;;7.25;83.87
56600;BME280;51832;48.152;11.530;2023-04-08T04:44:05;95601.41;;;7.47;83.04
56600;BME280;51832;48.152;11.530;2023-04-08T04:49:05;95614.94;;;7.51;82.84
56600;BME280;51832;48.152;11.530;2023-04-08T04:54:06;95608.66;;;7.52;82.94
56600;BME280;51832;48.152;11.530;2023-04-08T04:59:06;95620.38;;;7.63;83.01
56600;BME280;51832;48.152;11.530;2023-04-08T05:04:07;95615.31;;;7.55;83.71
56600;BME280;51832;48.152;11.530;2023-04-08T05:09:08;95606.09;;;7.85;82.67
56600;BME280;51832;48.152;11.530;2023-04-08T05:14:08;95617.53;;;7.58;84.46
56600;BME280;51832;48.152;11.530;2023-04-08T05:19:09;95621.56;;;7.54;84.65
56600;BME280;51832;48.152;11.530;2023-04-08T05:24:09;95615.16;;;7.76;83.98
56600;BME280;51832;48.152;11.530;2023-04-08T05:29:10;95619.00;;;7.93;82.78
56600;BME280;51832;48.152;11.530;2023-04-08T05:34:10;95626.44;;;7.76;84.07
56600;BME280;51832;48.152;11.530;2023-04-08T05:39:11;95622.63;;;7.99;83.53
56600;BME280;51832;48.152;11.530;2023-04-08T05:44:12;95621.84;;;8.05;82.88
56600;BME280;51832;48.152;11.530;2023-04-08T05:49:13;95621.41;;;8.08;82.86
56600;BME280;51832;48.152;11.530;2023-04-08T05:54:14;95625.66;;;8.02;83.40
56600;BME280;51832;48.152;11.530;2023-04-08T05:59:15;95631.06;;;7.81;84.25
56600;BME280;51832;48.152;11.530;2023-04-08T06:04:15;95620.63;;;8.47;81.73
56600;BME280;51832;48.152;11.530;2023-04-08T06:09:16;95633.50;;;8.09;83.54
56600;BME280;51832;48.152;11.530;2023-04-08T06:14:17;95634.31;;;8.23;82.87
56600;BME280;51832;48.152;11.530;2023-04-08T06:19:17;95646.00;;;8.20;82.60
56600;BME280;51832;48.152;11.530;2023-04-08T06:24:18;95641.81;;;8.32;82.19
56600;BME280;51832;48.152;11.530;2023-04-08T06:29:19;95643.38;;;8.66;80.83
56600;BME280;51832;48.152;11.530;2023-04-08T06:34:20;95649.25;;;8.48;81.57
56600;BME280;51832;48.152;11.530;2023-04-08T06:39:20;95648.44;;;8.02;83.35
56600;BME280;51832;48.152;11.530;2023-04-08T06:44:21;95654.28;;;8.63;81.44
56600;BME280;51832;48.152;11.530;2023-04-08T06:49:21;95655.50;;;8.34;81.31
56600;BME280;51832;48.152;11.530;2023-04-08T06:54:22;95669.00;;;7.98;83.18
56600;BME280;51832;48.152;11.530;2023-04-08T06:59:22;95663.75;;;8.11;82.79
56600;BME280;51832;48.152;11.530;2023-04-08T07:04:23;95656.69;;;8.65;81.31
56600;BME280;51832;48.152;11.530;2023-04-08T07:09:23;95669.41;;;8.48;80.60
56600;BME280;51832;48.152;11.530;2023-04-08T07:14:24;95675.28;;;8.57;79.85
56600;BME280;51832;48.152;11.530;2023-04-08T07:19:24;95680.44;;;9.03;78.36
56600;BME280;51832;48.152;11.530;2023-04-08T07:24:24;95677.59;;;9.11;77.70
56600;BME280;51832;48.152;11.530;2023-04-08T07:29:25;95692.00;;;8.82;77.35
56600;BME280;51832;48.152;11.530;2023-04-08T07:34:27;95687.38;;;8.38;74.99
56600;BME280;51832;48.152;11.530;2023-04-08T07:39:27;95699.69;;;8.57;74.70
56600;BME280;51832;48.152;11.530;2023-04-08T07:44:27;95703.03;;;9.04;70.91
56600;BME280;51832;48.152;11.530;2023-04-08T07:49:28;95706.88;;;9.14;67.09
56600;BME280;51832;48.152;11.530;2023-04-08T07:54:30;95702.66;;;9.00;63.97
56600;BME280;51832;48.152;11.530;2023-04-08T07:59:31;95705.06;;;9.15;63.08
56600;BME280;51832;48.152;11.530;2023-04-08T08:04:31;95700.97;;;9.19;59.83
56600;BME280;51832;48.152;11.530;2023-04-08T08:09:31;95699.47;;;9.56;58.39
56600;BME280;51832;48.152;11.530;2023-04-08T08:14:32;95707.44;;;9.23;59.62
56600;BME280;51832;48.152;11.530;2023-04-08T08:19:32;95712.16;;;8.95;60.54
56600;BME280;51832;48.152;11.530;2023-04-08T08:24:33;95722.91;;;8.73;61.89
56600;BME280;51832;48.152;11.530;2023-04-08T08:29:33;95711.94;;;8.89;61.75
56600;BME280;51832;48.152;11.530;2023-04-08T08:34:34;95723.09;;;8.39;63.08
56600;BME280;51832;48.152;11.530;2023-04-08T08:39:35;95713.78;;;8.89;60.98
56600;BME280;51832;48.152;11.530;2023-04-08T08:44:35;95726.91;;;8.63;60.93
56600;BME280;51832;48.152;11.530;2023-04-08T08:49:36;95728.34;;;8.45;61.87
56600;BME280;51832;48.152;11.530;2023-04-08T08:54:36;95738.81;;;8.65;63.83
56600;BME280;51832;48.152;11.530;2023-04-08T08:59:37;95733.19;;;8.68;65.25
56600;BME280;51832;48.152;11.530;2023-04-08T09:04:37;95741.19;;;8.27;67.74
56600;BME280;51832;48.152;11.530;2023-04-08T09:09:49;95749.03;;;8.01;68.40
56600;BME280;51832;48.152;11.530;2023-04-08T09:14:50;95756.81;;;7.74;67.80
56600;BME280;51832;48.152;11.530;2023-04-08T09:20:09;95758.47;;;7.89;68.37
56600;BME280;51832;48.152;11.530;2023-04-08T09:25:30;95756.56;;;7.63;67.76
56600;BME280;51832;48.152;11.530;2023-04-08T09:30:33;95759.50;;;7.46;67.45
56600;BME280;51832;48.152;11.530;2023-04-08T09:35:34;95757.19;;;7.71;67.53
56600;BME280;51832;48.152;11.530;2023-04-08T09:40:36;95754.28;;;7.53;67.43
56600;BME280;51832;48.152;11.530;2023-04-08T09:45:38;95766.16;;;7.49;66.79
56600;BME280;51832;48.152;11.530;2023-04-08T09:50:42;95762.75;;;7.55;67.23
56600;BME280;51832;48.152;11.530;2023-04-08T09:55:49;95753.41;;;7.87;65.93
56600;BME280;51832;48.152;11.530;2023-04-08T10:00:53;95761.38;;;7.66;65.86
56600;BME280;51832;48.152;11.530;2023-04-08T10:05:54;95754.59;;;7.78;66.36
56600;BME280;51832;48.152;11.530;2023-04-08T10:10:55;95750.50;;;8.36;65.22
56600;BME280;51832;48.152;11.530;2023-04-08T10:21:36;95758.53;;;8.28;65.61
56600;BME280;51832;48.152;11.530;2023-04-08T10:26:39;95760.22;;;8.55;65.24
56600;BME280;51832;48.152;11.530;2023-04-08T10:31:39;95754.16;;;8.48;66.37
56600;BME280;51832;48.152;11.530;2023-04-08T10:36:40;95752.16;;;8.57;65.72
56600;BME280;51832;48.152;11.530;2023-04-08T10:41:43;95752.09;;;9.10;64.22
56600;BME280;51832;48.152;11.530;2023-04-08T10:46:45;95748.28;;;8.93;64.10
56600;BME280;51832;48.152;11.530;2023-04-08T10:51:45;95757.97;;;8.39;66.14
56600;BME280;51832;48.152;11.530;2023-04-08T10:56:51;95754.56;;;8.72;66.23
56600;BME280;51832;48.152;11.530;2023-04-08T11:01:52;95748.31;;;8.79;65.71
56600;BME280;51832;48.152;11.530;2023-04-08T11:06:54;95761.44;;;8.60;66.53
56600;BME280;51832;48.152;11.530;2023-04-08T11:11:55;95755.56;;;8.38;68.28
56600;BME280;51832;48.152;11.530;2023-04-08T11:16:56;95759.00;;;8.45;68.09
56600;BME280;51832;48.152;11.530;2023-04-08T11:21:57;95761.03;;;8.56;67.92
56600;BME280;51832;48.152;11.530;2023-04-08T11:26:58;95760.81;;;8.51;68.12
56600;BME280;51832;48.152;11.530;2023-04-08T11:31:59;95759.00;;;8.45;69.26
56600;BME280;51832;48.152;11.530;2023-04-08T11:37:00;95756.38;;;8.71;68.11
56600;BME280;51832;48.152;11.530;2023-04-08T11:42:00;95769.28;;;8.66;67.50
56600;BME280;51832;48.152;11.530;2023-04-08T11:47:01;95743.66;;;8.68;68.08
56600;BME280;51832;48.152;11.530;2023-04-08T11:52:02;95756.97;;;8.53;69.87
56600;BME280;51832;48.152;11.530;2023-04-08T11:57:02;95763.81;;;8.35;70.07
56600;BME280;51832;48.152;11.530;2023-04-08T12:02:03;95758.81;;;8.46;70.63
56600;BME280;51832;48.152;11.530;2023-04-08T12:07:03;95770.91;;;8.80;68.92
56600;BME280;51832;48.152;11.530;2023-04-08T12:12:04;95772.03;;;8.25;70.40
56600;BME280;51832;48.152;11.530;2023-04-08T12:17:04;95781.00;;;7.83;71.73
56600;BME280;51832;48.152;11.530;2023-04-08T12:22:05;95786.16;;;8.24;70.24
56600;BME280;51832;48.152;11.530;2023-04-08T12:27:05;95785.00;;;8.33;69.84
56600;BME280;51832;48.152;11.530;2023-04-08T12:32:06;95782.88;;;8.02;70.56
56600;BME280;51832;48.152;11.530;2023-04-08T12:37:06;95792.06;;;8.33;69.13
56600;BME280;51832;48.152;11.530;2023-04-08T12:42:07;95790.19;;;8.27;69.58
56600;BME280;51832;48.152;11.530;2023-04-08T12:47:07;95793.41;;;8.15;70.47
56600;BME280;51832;48.152;11.530;2023-04-08T12:52:07;95797.63;;;8.03;70.25
56600;BME280;51832;48.152;11.530;2023-04-08T12:57:08;95794.09;;;7.83;71.11
56600;BME280;51832;48.152;11.530;2023-04-08T13:02:08;95790.66;;;7.76;70.88
56600;BME280;51832;48.152;11.530;2023-04-08T13:07:08;95793.91;;;7.84;71.91
56600;BME280;51832;48.152;11.530;2023-04-08T13:12:09;95799.81;;;8.00;71.31
56600;BME280;51832;48.152;11.530;2023-04-08T13:17:11;95800.66;;;8.20;71.61
56600;BME280;51832;48.152;11.530;2023-04-08T13:22:11;95803.25;;;8.07;71.72
56600;BME280;51832;48.152;11.530;2023-04-08T13:27:13;95799.63;;;8.08;72.87
56600;BME280;51832;48.152;11.530;2023-04-08T13:32:13;95800.19;;;7.90;73.62
56600;BME280;51832;48.152;11.530;2023-04-08T13:37:14;95801.13;;;7.76;73.78
56600;BME280;51832;48.152;11.530;2023-04-08T13:42:14;95806.47;;;8.09;72.89
56600;BME280;51832;48.152;11.530;2023-04-08T13:47:15;95801.56;;;7.86;74.44
56600;BME280;51832;48.152;11.530;2023-04-08T13:52:15;95813.13;;;8.05;73.76
56600;BME280;51832;48.152;11.530;2023-04-08T13:57:16;95811.53;;;8.10;72.93
56600;BME280;51832;48.152;11.530;2023-04-08T14:02:16;95822.19;;;8.02;74.14
56600;BME280;51832;48.152;11.530;2023-04-08T14:07:17;95820.16;;;7.98;73.23
56600;BME280;51832;48.152;11.530;2023-04-08T14:12:18;95825.53;;;7.83;74.23
56600;BME280;51832;48.152;11.530;2023-04-08T14:17:19;95828.63;;;8.06;74.85
56600;BME280;51832;48.152;11.530;2023-04-08T14:22:20;95826.94;;;7.79;74.02
56600;BME280;51832;48.152;11.530;2023-04-08T14:27:20;95827.97;;;8.39;72.10
56600;BME280;51832;48.152;11.530;2023-04-08T14:32:20;95834.25;;;8.44;71.24
56600;BME280;51832;48.152;11.530;2023-04-08T14:37:21;95826.97;;;8.33;71.88
56600;BME280;51832;48.152;11.530;2023-04-08T14:42:21;95839.31;;;8.66;69.89
56600;BME280;51832;48.152;11.530;2023-04-08T14:47:22;95826.34;;;8.38;70.12
56600;BME280;51832;48.152;11.530;2023-04-08T14:52:23;95832.97;;;8.34;70.42
56600;BME280;51832;48.152;11.530;2023-04-08T14:57:24;95838.84;;;8.36;69.63
56600;BME280;51832;48.152;11.530;2023-04-08T15:02:24;95848.72;;;8.34;70.03
56600;BME280;51832;48.152;11.530;2023-04-08T15:07:25;95849.81;;;8.59;69.96
56600;BME280;51832;48.152;11.530;2023-04-08T15:12:25;95858.69;;;8.65;70.14
56600;BME280;51832;48.152;11.530;2023-04-08T15:17:26;95847.56;;;8.63;70.50
56600;BME280;51832;48.152;11.530;2023-04-08T15:22:27;95858.22;;;8.48;70.87
56600;BME280;51832;48.152;11.530;2023-04-08T15:27:27;95856.28;;;8.70;69.82
56600;BME280;51832;48.152;11.530;2023-04-08T15:32:28;95855.63;;;8.61;70.20
56600;BME280;51832;48.152;11.530;2023-04-08T15:37:28;95862.28;;;8.50;71.02
56600;BME280;51832;48.152;11.530;2023-04-08T15:42:28;95864.69;;;8.32;71.53
56600;BME280;51832;48.152;11.530;2023-04-08T15:47:29;95862.41;;;8.29;72.72
56600;BME280;51832;48.152;11.530;2023-04-08T15:52:31;95865.53;;;8.52;71.75
56600;BME280;51832;48.152;11.530;2023-04-08T15:57:31;95866.06;;;8.35;72.68
56600;BME280;51832;48.152;11.530;2023-04-08T16:02:32;95875.38;;;8.44;71.61
56600;BME280;51832;48.152;11.530;2023-04-08T16:07:32;95874.00;;;8.54;72.15
56600;BME280;51832;48.152;11.530;2023-04-08T16:12:33;95886.91;;;8.63;72.62
56600;BME280;51832;48.152;11.530;2023-04-08T16:17:33;95890.16;;;8.65;72.81
56600;BME280;51832;48.152;11.530;2023-04-08T16:22:34;95888.56;;;8.70;73.01
56600;BME280;51832;48.152;11.530;2023-04-08T16:27:35;95886.94;;;8.76;72.42
56600;BME280;51832;48.152;11.530;2023-04-08T16:32:37;95896.81;;;8.67;73.86
56600;BME280;51832;48.152;11.530;2023-04-08T16:37:38;95912.75;;;8.66;73.52
56600;BME280;51832;48.152;11.530;2023-04-08T16:42:38;95897.19;;;8.51;73.32
56600;BME280;51832;48.152;11.530;2023-04-08T16:47:38;95900.06;;;8.69;73.22
56600;BME280;51832;48.152;11.530;2023-04-08T16:52:40;95909.19;;;8.86;72.24
56600;BME280;51832;48.152;11.530;2023-04-08T16:57:48;95907.34;;;8.80;73.13
56600;BME280;51832;48.152;11.530;2023-04-08T17:02:48;95909.75;;;8.75;72.89
56600;BME280;51832;48.152;11.530;2023-04-08T17:07:49;95914.59;;;8.72;73.50
56600;BME280;51832;48.152;11.530;2023-04-08T17:12:49;95911.81;;;8.86;73.40
56600;BME280;51832;48.152;11.530;2023-04-08T17:17:50;95922.06;;;8.68;73.06
56600;BME280;51832;48.152;11.530;2023-04-08T17:22:50;95917.81;;;8.61;74.04
56600;BME280;51832;48.152;11.530;2023-04-08T17:27:51;95919.00;;;8.58;75.17
56600;BME280;51832;48.152;11.530;2023-04-08T17:32:51;95923.06;;;8.67;74.40
56600;BME280;51832;48.152;11.530;2023-04-08T17:37:52;95928.72;;;8.71;74.41
56600;BME280;51832;48.152;11.530;2023-04-08T17:42:52;95937.56;;;8.63;73.77
56600;BME280;51832;48.152;11.530;2023-04-08T17:47:52;95943.66;;;8.77;74.50
56600;BME280;51832;48.152;11.530;2023-04-08T17:52:53;95953.00;;;8.86;75.54
56600;BME280;51832;48.152;11.530;2023-04-08T17:57:53;95954.41;;;8.95;74.53
56600;BME280;51832;48.152;11.530;2023-04-08T18:02:54;95953.88;;;8.52;75.75
56600;BME280;51832;48.152;11.530;2023-04-08T18:07:55;95955.50;;;8.53;75.06
56600;BME280;51832;48.152;11.530;2023-04-08T18:12:57;95964.19;;;8.53;76.18
56600;BME280;51832;48.152;11.530;2023-04-08T18:17:57;95961.53;;;8.47;77.17
56600;BME280;51832;48.152;11.530;2023-04-08T18:22:58;95966.84;;;8.60;76.49
56600;BME280;51832;48.152;11.530;2023-04-08T18:28:02;95975.28;;;8.62;76.57
56600;BME280;51832;48.152;11.530;2023-04-08T18:33:03;95988.22;;;8.57;76.30
56600;BME280;51832;48.152;11.530;2023-04-08T18:38:03;95993.28;;;8.65;76.39
56600;BME280;51832;48.152;11.530;2023-04-08T18:43:04;95998.53;;;8.65;75.89
56600;BME280;51832;48.152;11.530;2023-04-08T18:48:05;95996.09;;;8.64;75.61
56600;BME280;51832;48.152;11.530;2023-04-08T18:53:05;96006.56;;;8.57;76.22
56600;BME280;51832;48.152;11.530;2023-04-08T18:58:07;96011.78;;;8.50;76.33
56600;BME280;51832;48.152;11.530;2023-04-08T19:03:07;96017.13;;;8.70;75.73
56600;BME280;51832;48.152;11.530;2023-04-08T19:08:07;96012.63;;;8.58;75.24
56600;BME280;51832;48.152;11.530;2023-04-08T19:13:08;96017.25;;;8.62;75.71
56600;BME280;51832;48.152;11.530;2023-04-08T19:18:08;96024.94;;;8.57;76.13
56600;BME280;51832;48.152;11.530;2023-04-08T19:23:09;96036.84;;;8.60;76.14
56600;BME280;51832;48.152;11.530;2023-04-08T19:28:09;96032.59;;;8.59;75.32
56600;BME280;51832;48.152;11.530;2023-04-08T19:33:09;96031.63;;;8.66;75.16
56600;BME280;51832;48.152;11.530;2023-04-08T19:38:10;96039.47;;;8.60;75.90
56600;BME280;51832;48.152;11.530;2023-04-08T19:43:11;96041.53;;;8.71;75.11
56600;BME280;51832;48.152;11.530;2023-04-08T19:48:11;96042.34;;;8.71;74.48
56600;BME280;51832;48.152;11.530;2023-04-08T19:53:12;96049.56;;;8.63;75.36
56600;BME280;51832;48.152;11.530;2023-04-08T19:58:12;96044.53;;;8.68;75.18
56600;BME280;51832;48.152;11.530;2023-04-08T20:03:12;96034.69;;;8.76;74.62
56600;BME280;51832;48.152;11.530;2023-04-08T20:08:13;96045.47;;;8.53;75.78
56600;BME280;51832;48.152;11.530;2023-04-08T20:13:13;96047.22;;;8.40;77.33
56600;BME280;51832;48.152;11.530;2023-04-08T20:18:15;96051.63;;;8.33;76.95
56600;BME280;51832;48.152;11.530;2023-04-08T20:23:15;96052.53;;;8.53;75.70
56600;BME280;51832;48.152;11.530;2023-04-08T20:28:16;96050.72;;;8.53;75.75
56600;BME280;51832;48.152;11.530;2023-04-08T20:33:17;96047.53;;;8.58;74.76
56600;BME280;51832;48.152;11.530;2023-04-08T20:38:18;96051.16;;;8.57;74.97
56600;BME280;51832;48.152;11.530;2023-04-08T20:43:18;96057.91;;;8.73;75.04
56600;BME280;51832;48.152;11.530;2023-04-08T20:48:19;96054.88;;;8.76;74.84
56600;BME280;51832;48.152;11.530;2023-04-08T20:53:19;96050.38;;;8.63;75.16
56600;BME280;51832;48.152;11.530;2023-04-08T20:58:22;96055.28;;;8.79;75.24
56600;BME280;51832;48.152;11.530;2023-04-08T21:03:23;96049.97;;;8.66;74.07
56600;BME280;51832;48.152;11.530;2023-04-08T21:08:24;96048.50;;;8.50;75.67
56600;BME280;51832;48.152;11.530;2023-04-08T21:13:24;96062.78;;;8.48;76.05
56600;BME280;51832;48.152;11.530;2023-04-08T21:18:25;96053.34;;;8.47;75.57
56600;BME280;51832;48.152;11.530;2023-04-08T21:23:25;96061.84;;;8.55;76.06
56600;BME280;51832;48.152;11.530;2023-04-08T21:28:26;96057.28;;;8.36;76.34
56600;BME280;51832;48.152;11.530;2023-04-08T21:33:26;96067.03;;;7.93;78.72
56600;BME280;51832;48.152;11.530;2023-04-08T21:38:27;96058.72;;;8.39;76.45
56600;BME280;51832;48.152;11.530;2023-04-08T21:43:27;96067.78;;;8.36;77.06
56600;BME280;51832;48.152;11.530;2023-04-08T21:48:28;96057.34;;;8.43;76.84
56600;BME280;51832;48.152;11.530;2023-04-08T21:53:29;96061.84;;;8.62;75.37
56600;BME280;51832;48.152;11.530;2023-04-08T21:58:29;96063.09;;;8.66;75.28
56600;BME280;51832;48.152;11.530;2023-04-08T22:03:29;96066.22;;;8.48;74.05
56600;BME280;51832;48.152;11.530;2023-04-08T22:08:30;96069.16;;;8.67;74.30
56600;BME280;51832;48.152;11.530;2023-04-08T22:13:31;96067.22;;;8.82;72.76
56600;BME280;51832;48.152;11.530;2023-04-08T22:18:32;96056.16;;;8.93;72.01
56600;BME280;51832;48.152;11.530;2023-04-08T22:23:32;96067.50;;;9.00;70.51
56600;BME280;51832;48.152;11.530;2023-04-08T22:28:33;96068.50;;;9.06;70.53
56600;BME280;51832;48.152;11.530;2023-04-08T22:33:33;96071.16;;;9.12;70.48
56600;BME280;51832;48.152;11.530;2023-04-08T22:38:33;96062.66;;;9.04;69.32
56600;BME280;51832;48.152;11.530;2023-04-08T22:43:34;96065.25;;;9.04;70.99
56600;BME280;51832;48.152;11.530;2023-04-08T22:48:35;96065.22;;;8.84;72.24
56600;BME280;51832;48.152;11.530;2023-04-08T22:53:36;96073.59;;;8.66;74.19
56600;BME280;51832;48.152;11.530;2023-04-08T22:58:36;96071.28;;;8.50;74.60
56600;BME280;51832;48.152;11.530;2023-04-08T23:03:37;96067.91;;;8.56;74.50
56600;BME280;51832;48.152;11.530;2023-04-08T23:08:37;96076.16;;;8.53;75.24
56600;BME280;51832;48.152;11.530;2023-04-08T23:13:38;96057.97;;;8.51;75.12
56600;BME280;51832;48.152;11.530;2023-04-08T23:18:38;96070.44;;;8.43;75.80
56600;BME280;51832;48.152;11.530;2023-04-08T23:23:38;96071.75;;;8.60;74.67
56600;BME280;51832;48.152;11.530;2023-04-08T23:28:39;96074.63;;;8.72;74.21
56600;BME280;51832;48.152;11.530;2023-04-08T23:33:39;96076.06;;;8.74;73.87
56600;BME280;51832;48.152;11.530;2023-04-08T23:38:40;96074.84;;;8.70;74.14
56600;BME280;51832;48.152;11.530;2023-04-08T23:43:40;96071.41;;;8.76;73.96
56600;BME280;51832;48.152;11.530;2023-04-08T23:48:40;96073.34;;;9.02;72.24
56600;BME280;51832;48.152;11.530;2023-04-08T23:53:41;96079.72;;;8.80;73.26
56600;BME280;51832;48.152;11.530;2023-04-08T23:58:41;96073.22;;;8.76;72.13
